createdAt,value
2023-04-26T00:00:56.945Z,0.50
2023-04-26T00:03:25.752Z,0.50
2023-04-26T00:05:54.878Z,0.43
2023-04-26T00:08:23.032Z,0.43
2023-04-26T00:10:51.143Z,0.40
2023-04-26T00:13:19.022Z,0.67
2023-04-26T00:15:50.413Z,0.50
2023-04-26T00:18:18.498Z,0.60
2023-04-26T00:20:46.444Z,0.40
2023-04-26T00:23:14.672Z,0.50
2023-04-26T00:25:43.039Z,0.50
2023-04-26T00:28:10.938Z,0.40
2023-04-26T00:30:42.302Z,0.50
2023-04-26T00:33:11.533Z,0.50
2023-04-26T00:35:39.480Z,0.40
2023-04-26T00:38:07.760Z,0.40
2023-04-26T00:40:36.297Z,0.43
2023-04-26T00:43:10.102Z,0.40
2023-04-26T00:45:38.988Z,0.60
2023-04-26T00:48:07.310Z,0.50
2023-04-26T00:50:36.989Z,0.40
2023-04-26T00:53:06.359Z,0.47
2023-04-26T00:55:35.372Z,0.40
2023-04-26T00:58:03.852Z,0.50
2023-04-26T01:00:31.927Z,0.50
2023-04-26T01:03:00.086Z,0.50
2023-04-26T01:05:28.054Z,0.47
2023-04-26T01:07:57.791Z,0.40
2023-04-26T01:10:26.444Z,0.40
2023-04-26T01:12:57.925Z,0.50
2023-04-26T01:15:28.053Z,0.50
2023-04-26T01:17:56.624Z,0.40
2023-04-26T01:20:26.121Z,0.50
2023-04-26T01:22:55.979Z,0.40
2023-04-26T01:25:26.470Z,0.47
2023-04-26T01:27:54.354Z,0.40
2023-04-26T01:30:22.469Z,0.40
2023-04-26T01:32:50.605Z,0.40
2023-04-26T01:35:18.931Z,0.40
2023-04-26T01:37:46.842Z,0.50
2023-04-26T01:40:16.590Z,0.40
2023-04-26T01:42:44.664Z,0.40
2023-04-26T01:45:12.982Z,0.40
2023-04-26T01:47:42.917Z,0.50
2023-04-26T01:50:11.774Z,0.40
2023-04-26T01:52:41.161Z,0.40
2023-04-26T01:55:10.077Z,0.40
2023-04-26T01:57:39.745Z,0.40
2023-04-26T02:00:09.431Z,0.40
2023-04-26T02:02:40.927Z,0.40
2023-04-26T02:05:12.474Z,0.40
2023-04-26T02:07:40.457Z,0.30
2023-04-26T02:10:10.026Z,0.30
2023-04-26T02:12:39.594Z,0.40
2023-04-26T02:15:09.691Z,0.50
2023-04-26T02:17:37.834Z,0.40
2023-04-26T02:20:08.314Z,0.50
2023-04-26T02:22:38.568Z,0.50
2023-04-26T02:25:09.668Z,0.40
2023-04-26T02:27:40.104Z,0.50
2023-04-26T02:30:10.730Z,0.40
2023-04-26T02:32:40.015Z,0.50
2023-04-26T02:35:09.539Z,0.40
2023-04-26T02:37:38.426Z,0.30
2023-04-26T02:40:10.508Z,0.43
2023-04-26T02:42:39.855Z,0.50
2023-04-26T02:45:09.056Z,0.50
2023-04-26T02:47:39.872Z,0.50
2023-04-26T02:50:10.480Z,0.50
2023-04-26T02:52:39.661Z,0.40
2023-04-26T02:55:09.539Z,0.40
2023-04-26T02:57:39.806Z,0.40
2023-04-26T03:00:09.164Z,0.40
2023-04-26T03:02:38.683Z,0.40
2023-04-26T03:05:07.020Z,0.40
2023-04-26T03:07:34.888Z,0.57
2023-04-26T03:10:05.340Z,0.63
2023-04-26T03:12:33.642Z,0.40
2023-04-26T03:15:04.128Z,0.50
2023-04-26T03:17:32.425Z,0.43
2023-04-26T03:20:01.939Z,0.50
2023-04-26T03:22:30.743Z,0.50
2023-04-26T03:24:58.592Z,0.47
2023-04-26T03:27:26.541Z,0.40
2023-04-26T03:29:54.607Z,0.50
2023-04-26T03:32:24.053Z,0.47
2023-04-26T03:34:52.303Z,0.33
2023-04-26T03:37:20.126Z,0.50
2023-04-26T03:39:48.078Z,0.40
2023-04-26T03:42:16.173Z,0.40
2023-04-26T03:44:44.080Z,0.50
2023-04-26T03:47:15.784Z,0.43
2023-04-26T03:49:48.016Z,0.50
2023-04-26T03:52:33.264Z,0.30
2023-04-26T03:55:01.439Z,0.40
2023-04-26T03:57:56.298Z,0.37
2023-04-26T04:00:24.600Z,0.40
2023-04-26T04:02:57.874Z,0.40
2023-04-26T04:05:34.643Z,0.50
2023-04-26T04:08:03.106Z,0.50
2023-04-26T04:10:35.121Z,0.40
2023-04-26T04:13:11.499Z,0.70
2023-04-26T04:15:41.143Z,0.50
2023-04-26T04:18:09.232Z,0.40
2023-04-26T04:20:42.178Z,0.50
2023-04-26T04:23:10.873Z,0.33
2023-04-26T04:25:42.065Z,0.40
2023-04-26T04:28:11.253Z,0.40
2023-04-26T04:30:39.266Z,0.50
2023-04-26T04:33:10.433Z,0.50
2023-04-26T04:35:42.007Z,0.40
2023-04-26T04:38:09.975Z,0.40
2023-04-26T04:40:39.845Z,0.40
2023-04-26T04:43:09.100Z,0.40
2023-04-26T04:45:37.322Z,0.40
2023-04-26T04:48:09.272Z,0.40
2023-04-26T04:50:38.688Z,0.50
2023-04-26T04:53:09.063Z,0.40
2023-04-26T04:55:39.636Z,0.40
2023-04-26T04:58:07.806Z,0.40
2023-04-26T05:00:38.088Z,0.50
2023-04-26T05:03:08.612Z,0.50
2023-04-26T05:05:37.372Z,0.40
2023-04-26T05:08:07.874Z,0.40
2023-04-26T05:10:36.324Z,0.50
2023-04-26T05:13:06.650Z,0.50
2023-04-26T05:15:34.561Z,0.40
2023-04-26T05:18:02.477Z,0.40
2023-04-26T05:20:31.262Z,0.50
2023-04-26T05:22:59.168Z,0.50
2023-04-26T05:25:28.510Z,0.40
2023-04-26T05:27:56.835Z,0.40
2023-04-26T05:30:25.349Z,0.40
2023-04-26T05:32:53.588Z,0.50
2023-04-26T05:35:21.904Z,0.40
2023-04-26T05:37:49.871Z,0.37
2023-04-26T05:40:17.879Z,0.50
2023-04-26T05:42:47.184Z,0.40
2023-04-26T05:45:15.562Z,0.50
2023-04-26T05:47:43.716Z,0.43
2023-04-26T05:50:12.197Z,0.40
2023-04-26T05:52:40.136Z,0.30
2023-04-26T05:55:09.267Z,0.40
2023-04-26T05:57:37.430Z,0.40
2023-04-26T06:00:09.687Z,0.40
2023-04-26T06:02:38.031Z,0.40
2023-04-26T06:05:07.607Z,0.47
2023-04-26T06:07:36.186Z,0.40
2023-04-26T06:10:04.494Z,0.50
2023-04-26T06:12:33.037Z,0.50
2023-04-26T06:15:01.486Z,0.50
2023-04-26T06:17:31.113Z,0.47
2023-04-26T06:19:59.165Z,0.50
2023-04-26T06:22:29.227Z,0.43
2023-04-26T06:24:57.267Z,0.50
2023-04-26T06:27:25.239Z,0.50
2023-04-26T06:29:53.582Z,0.47
2023-04-26T06:32:21.802Z,0.43
2023-04-26T06:34:51.573Z,0.40
2023-04-26T06:37:19.483Z,0.50
2023-04-26T06:39:47.426Z,0.50
2023-04-26T06:42:15.475Z,0.40
2023-04-26T06:44:43.464Z,0.40
2023-04-26T06:47:11.369Z,0.40
2023-04-26T06:49:39.720Z,0.40
2023-04-26T06:52:11.978Z,0.40
2023-04-26T06:54:42.892Z,0.40
2023-04-26T06:57:18.934Z,0.40
2023-04-26T06:59:47.297Z,0.40
2023-04-26T07:02:15.955Z,0.40
2023-04-26T07:04:44.579Z,0.40
2023-04-26T07:07:17.149Z,0.40
2023-04-26T07:09:45.319Z,0.30
2023-04-26T07:12:13.579Z,0.30
2023-04-26T07:14:43.333Z,0.30
2023-04-26T07:17:11.716Z,0.30
2023-04-26T07:19:39.780Z,0.30
2023-04-26T07:22:10.005Z,0.20
2023-04-26T07:24:39.661Z,0.30
2023-04-26T07:27:10.681Z,0.20
2023-04-26T07:29:43.874Z,0.20
2023-04-26T07:32:11.987Z,0.30
2023-04-26T07:34:39.977Z,0.20
2023-04-26T07:37:08.216Z,0.20
2023-04-26T07:39:50.740Z,0.20
2023-04-26T07:42:18.792Z,0.30
2023-04-26T07:44:49.168Z,0.20
2023-04-26T07:47:39.205Z,0.20
2023-04-26T07:50:08.647Z,0.20
2023-04-26T07:52:41.138Z,0.20
2023-04-26T07:55:11.316Z,0.30
2023-04-26T07:57:41.829Z,0.20
2023-04-26T08:00:13.690Z,0.20
2023-04-26T08:02:44.633Z,0.20
2023-04-26T08:05:14.525Z,0.20
2023-04-26T08:07:42.984Z,0.20
2023-04-26T08:10:16.343Z,0.20
2023-04-26T08:12:49.581Z,0.20
2023-04-26T08:15:26.795Z,0.20
2023-04-26T08:17:55.140Z,0.20
2023-04-26T08:20:27.089Z,0.20
2023-04-26T08:27:23.243Z,0.23
2023-04-26T08:29:51.205Z,0.20
2023-04-26T08:32:21.489Z,0.20
2023-04-26T08:34:49.892Z,0.20
2023-04-26T08:37:21.550Z,0.10
2023-04-26T08:39:50.644Z,0.23
2023-04-26T08:42:25.653Z,0.20
2023-04-26T08:44:54.901Z,0.20
2023-04-26T08:47:28.684Z,0.20
2023-04-26T08:49:59.832Z,0.30
2023-04-26T08:52:30.063Z,0.20
2023-04-26T08:54:59.143Z,0.30
2023-04-26T08:57:28.843Z,0.30
2023-04-26T09:00:02.281Z,0.30
2023-04-26T09:02:31.500Z,0.30
2023-04-26T09:05:00.029Z,0.30
2023-04-26T09:07:32.835Z,0.20
2023-04-26T09:10:01.763Z,0.20
2023-04-26T09:12:46.378Z,0.30
2023-04-26T09:15:17.023Z,0.20
2023-04-26T09:17:46.063Z,0.20
2023-04-26T09:20:22.664Z,0.23
2023-04-26T09:22:54.051Z,0.20
2023-04-26T09:25:30.115Z,0.20
2023-04-26T09:28:03.784Z,0.20
2023-04-26T09:30:39.490Z,0.20
2023-04-26T09:33:09.737Z,0.20
2023-04-26T09:35:42.186Z,0.20
2023-04-26T09:38:15.783Z,0.20
2023-04-26T09:40:46.298Z,0.23
2023-04-26T09:43:17.653Z,0.30
2023-04-26T09:45:49.124Z,0.30
2023-04-26T09:48:20.724Z,0.27
2023-04-26T09:50:49.956Z,0.30
2023-04-26T09:53:29.206Z,0.30
2023-04-26T09:55:58.171Z,0.20
2023-04-26T09:58:27.895Z,0.20
2023-04-26T10:00:57.044Z,0.30
2023-04-26T10:03:27.273Z,0.20
2023-04-26T10:05:55.944Z,0.20
2023-04-26T10:08:24.348Z,0.20
2023-04-26T10:10:52.683Z,0.20
2023-04-26T10:13:20.890Z,0.20
2023-04-26T10:15:51.006Z,0.30
2023-04-26T10:18:18.969Z,0.20
2023-04-26T10:20:53.070Z,0.20
2023-04-26T10:23:30.339Z,0.23
2023-04-26T10:25:58.622Z,0.20
2023-04-26T10:29:02.215Z,0.20
2023-04-26T10:32:07.428Z,0.20
2023-04-26T10:34:39.319Z,0.20
2023-04-26T10:37:12.334Z,0.20
2023-04-26T10:39:43.923Z,0.20
2023-04-26T10:42:26.898Z,0.30
2023-04-26T10:44:55.767Z,0.20
2023-04-26T10:47:26.939Z,0.20
2023-04-26T10:50:05.723Z,0.30
2023-04-26T10:52:34.895Z,0.30
2023-04-26T10:55:03.548Z,0.20
2023-04-26T10:57:51.593Z,0.20
2023-04-26T11:00:32.714Z,0.20
2023-04-26T11:03:06.842Z,0.23
2023-04-26T11:05:54.212Z,0.20
2023-04-26T11:08:26.356Z,0.20
2023-04-26T11:11:00.570Z,0.20
2023-04-26T11:13:28.686Z,0.20
2023-04-26T11:16:03.338Z,0.20
2023-04-26T11:18:32.142Z,0.20
2023-04-26T11:21:01.790Z,0.20
2023-04-26T11:23:33.754Z,0.20
2023-04-26T11:26:03.858Z,0.20
2023-04-26T11:28:34.296Z,0.20
2023-04-26T11:31:04.318Z,0.30
2023-04-26T11:33:34.121Z,0.27
2023-04-26T11:36:03.950Z,0.20
2023-04-26T11:38:32.115Z,0.20
2023-04-26T11:41:01.586Z,0.20
2023-04-26T11:43:37.016Z,0.30
2023-04-26T11:46:10.132Z,0.23
2023-04-26T11:48:39.914Z,0.20
2023-04-26T11:51:11.926Z,0.20
2023-04-26T11:53:41.102Z,0.20
2023-04-26T11:56:18.725Z,0.30
2023-04-26T11:58:48.112Z,0.20
2023-04-26T12:01:23.282Z,0.20
2023-04-26T12:03:53.111Z,0.30
2023-04-26T12:06:30.196Z,0.30
2023-04-26T12:08:58.470Z,0.30
2023-04-26T12:11:27.455Z,0.20
2023-04-26T12:13:55.406Z,0.20
2023-04-26T12:16:26.891Z,0.20
2023-04-26T12:18:56.948Z,0.20
2023-04-26T12:21:30.434Z,0.20
2023-04-26T12:24:03.966Z,0.20
2023-04-26T12:26:48.890Z,0.20
2023-04-26T12:29:26.056Z,0.30
2023-04-26T12:32:04.115Z,0.37
2023-04-26T12:34:33.366Z,0.30
2023-04-26T12:37:05.378Z,0.30
2023-04-26T12:39:41.154Z,0.20
2023-04-26T12:42:41.247Z,0.20
2023-04-26T12:45:16.721Z,0.30
2023-04-26T12:47:44.870Z,0.30
2023-04-26T12:50:18.569Z,0.20
2023-04-26T12:52:51.570Z,0.20
2023-04-26T12:55:20.814Z,0.30
2023-04-26T12:57:48.994Z,0.30
2023-04-26T13:00:21.845Z,0.20
2023-04-26T13:02:50.197Z,0.20
2023-04-26T13:05:18.160Z,0.20
2023-04-26T13:07:46.064Z,0.20
2023-04-26T13:10:15.321Z,0.20
2023-04-26T13:12:43.447Z,0.30
2023-04-26T13:15:12.381Z,0.30
2023-04-26T13:17:43.028Z,0.20
2023-04-26T13:20:11.662Z,0.30
2023-04-26T13:22:42.378Z,0.30
2023-04-26T13:25:11.058Z,0.30
2023-04-26T13:27:42.820Z,0.30
2023-04-26T13:30:12.126Z,0.20
2023-04-26T13:32:40.989Z,0.30
2023-04-26T13:35:10.293Z,0.20
2023-04-26T13:37:39.213Z,0.30
2023-04-26T13:40:08.800Z,0.30
2023-04-26T13:42:36.770Z,0.40
2023-04-26T13:45:09.460Z,0.30
2023-04-26T13:47:37.977Z,0.27
2023-04-26T13:50:06.532Z,0.30
2023-04-26T13:52:34.464Z,0.20
2023-04-26T13:55:03.082Z,0.30
2023-04-26T13:57:31.470Z,0.20
2023-04-26T14:00:00.768Z,0.30
2023-04-26T14:02:30.298Z,0.20
2023-04-26T14:04:58.462Z,0.30
2023-04-26T14:07:27.630Z,0.30
2023-04-26T14:09:57.560Z,0.30
2023-04-26T14:12:29.061Z,0.20
2023-04-26T14:14:56.942Z,0.30
2023-04-26T14:17:32.448Z,0.20
2023-04-26T14:20:01.839Z,0.20
2023-04-26T14:22:29.764Z,0.20
2023-04-26T14:24:57.886Z,0.20
2023-04-26T14:27:30.619Z,0.30
2023-04-26T14:29:58.480Z,0.20
2023-04-26T14:32:27.120Z,0.20
2023-04-26T14:34:56.584Z,0.20
2023-04-26T14:37:24.479Z,0.20
2023-04-26T14:39:52.380Z,0.30
2023-04-26T14:42:20.433Z,0.20
2023-04-26T14:44:48.592Z,0.20
2023-04-26T14:47:16.519Z,0.20
2023-04-26T14:49:44.701Z,0.27
2023-04-26T14:52:14.402Z,0.20
2023-04-26T14:54:42.933Z,0.20
2023-04-26T14:57:10.945Z,0.20
2023-04-26T14:59:39.737Z,0.23
2023-04-26T15:02:08.092Z,0.20
2023-04-26T15:04:38.385Z,0.30
2023-04-26T15:07:06.791Z,0.23
2023-04-26T15:09:37.208Z,0.30
2023-04-26T15:12:06.106Z,0.20
2023-04-26T15:14:34.184Z,0.30
2023-04-26T15:17:02.403Z,0.20
2023-04-26T15:19:30.349Z,0.20
2023-04-26T15:22:01.047Z,0.20
2023-04-26T15:24:30.346Z,0.20
2023-04-26T15:27:01.653Z,0.20
2023-04-26T15:29:32.120Z,0.30
2023-04-26T15:32:00.210Z,0.20
2023-04-26T15:34:30.223Z,0.20
2023-04-26T15:37:00.665Z,0.20
2023-04-26T15:39:30.279Z,0.20
2023-04-26T15:41:59.933Z,0.20
2023-04-26T15:44:29.472Z,0.20
2023-04-26T15:46:57.308Z,0.20
2023-04-26T15:49:25.355Z,0.20
2023-04-26T15:51:55.315Z,0.20
2023-04-26T15:54:23.270Z,0.20
2023-04-26T15:56:51.830Z,0.20
2023-04-26T15:59:20.273Z,0.30
2023-04-26T16:01:49.767Z,0.20
2023-04-26T16:04:17.874Z,0.20
2023-04-26T16:06:46.079Z,0.30
2023-04-26T16:09:24.809Z,0.27
2023-04-26T16:11:53.662Z,0.27
2023-04-26T16:14:24.796Z,0.30
2023-04-26T16:16:54.397Z,0.27
2023-04-26T16:19:24.572Z,0.27
2023-04-26T16:21:52.533Z,0.20
2023-04-26T16:24:21.217Z,0.20
2023-04-26T16:26:52.612Z,0.30
2023-04-26T16:29:26.863Z,0.20
2023-04-26T16:31:56.212Z,0.20
2023-04-26T16:34:27.765Z,0.20
2023-04-26T16:36:55.869Z,0.30
2023-04-26T16:39:24.492Z,0.23
2023-04-26T16:41:57.509Z,0.30
2023-04-26T16:44:26.659Z,0.20
2023-04-26T16:46:56.077Z,0.20
2023-04-26T16:49:24.542Z,0.20
2023-04-26T16:52:26.517Z,0.20
2023-04-26T16:54:55.653Z,0.20
2023-04-26T16:57:45.103Z,0.23
2023-04-26T17:00:16.772Z,0.20
2023-04-26T17:02:48.278Z,0.20
2023-04-26T17:05:18.646Z,0.23
2023-04-26T17:07:50.763Z,0.30
2023-04-26T17:10:19.133Z,0.20
2023-04-26T17:12:47.518Z,0.20
2023-04-26T17:15:25.651Z,0.27
2023-04-26T17:17:55.311Z,0.30
2023-04-26T17:20:25.690Z,0.20
2023-04-26T17:22:53.849Z,0.20
2023-04-26T17:25:23.020Z,0.20
2023-04-26T17:27:51.528Z,0.20
2023-04-26T17:30:20.043Z,0.30
2023-04-26T17:32:50.533Z,0.30
2023-04-26T17:35:20.073Z,0.20
2023-04-26T17:37:50.243Z,0.20
2023-04-26T17:40:22.777Z,0.30
2023-04-26T17:42:50.739Z,0.20
2023-04-26T17:45:18.781Z,0.27
2023-04-26T17:47:46.892Z,0.20
2023-04-26T17:50:15.438Z,0.30
2023-04-26T17:52:45.254Z,0.27
2023-04-26T17:55:13.339Z,0.20
2023-04-26T17:57:42.377Z,0.20
2023-04-26T18:00:13.949Z,0.30
2023-04-26T18:02:43.418Z,0.30
2023-04-26T18:05:18.274Z,0.20
2023-04-26T18:07:50.681Z,0.20
2023-04-26T18:10:19.129Z,0.20
2023-04-26T18:12:55.957Z,0.23
2023-04-26T18:15:28.042Z,0.30
2023-04-26T18:17:56.162Z,0.20
2023-04-26T18:20:24.221Z,0.30
2023-04-26T18:22:58.161Z,0.30
2023-04-26T18:25:27.387Z,0.40
2023-04-26T18:27:57.910Z,0.30
2023-04-26T18:30:26.268Z,0.30
2023-04-26T18:32:55.584Z,0.30
2023-04-26T18:35:23.777Z,0.30
2023-04-26T18:37:53.252Z,0.30
2023-04-26T18:40:21.221Z,0.30
2023-04-26T18:42:49.380Z,0.40
2023-04-26T18:45:17.758Z,0.30
2023-04-26T18:47:45.895Z,0.20
2023-04-26T18:50:13.873Z,0.30
2023-04-26T18:52:50.240Z,0.40
2023-04-26T18:55:21.593Z,0.30
2023-04-26T18:57:50.200Z,0.40
2023-04-26T19:00:22.901Z,0.40
2023-04-26T19:02:51.218Z,0.50
2023-04-26T19:05:19.736Z,0.40
2023-04-26T19:07:47.828Z,0.40
2023-04-26T19:10:23.141Z,0.40
2023-04-26T19:12:52.084Z,0.40
2023-04-26T19:15:20.933Z,0.50
2023-04-26T19:17:50.619Z,0.60
2023-04-26T19:20:26.863Z,0.40
2023-04-26T19:22:55.058Z,0.47
2023-04-26T19:25:29.522Z,0.60
2023-04-26T19:27:59.685Z,0.50
2023-04-26T19:30:27.869Z,0.57
2023-04-26T19:33:00.020Z,0.50
2023-04-26T19:35:28.251Z,0.67
2023-04-26T19:37:57.234Z,0.50
2023-04-26T19:40:26.804Z,0.57
2023-04-26T19:42:54.746Z,0.40
2023-04-26T19:45:22.877Z,0.43
2023-04-26T19:47:53.726Z,0.50
2023-04-26T19:50:22.769Z,0.47
2023-04-26T19:52:50.797Z,0.50
2023-04-26T19:55:29.756Z,0.50
2023-04-26T19:57:59.386Z,0.47
2023-04-26T20:00:30.217Z,0.40
2023-04-26T20:02:59.136Z,0.60
2023-04-26T20:05:27.483Z,0.50
2023-04-26T20:08:00.460Z,0.50
2023-04-26T20:10:31.622Z,0.50
2023-04-26T20:13:01.498Z,0.50
2023-04-26T20:15:32.273Z,0.60
2023-04-26T20:18:06.987Z,0.50
2023-04-26T20:20:37.146Z,0.40
2023-04-26T20:23:05.092Z,0.60
2023-04-26T20:25:36.028Z,0.50
2023-04-26T20:28:13.033Z,0.60
2023-04-26T20:30:41.017Z,0.40
2023-04-26T20:33:10.101Z,0.50
2023-04-26T20:35:38.130Z,0.40
2023-04-26T20:40:48.783Z,0.83
2023-04-26T20:43:18.466Z,0.50
2023-04-26T20:45:49.441Z,0.43
2023-04-26T20:48:17.586Z,0.40
2023-04-26T20:50:45.726Z,0.57
2023-04-26T20:53:13.904Z,0.40
2023-04-26T20:55:42.300Z,0.50
2023-04-26T20:58:10.250Z,0.60
2023-04-26T21:00:51.495Z,0.40
2023-04-26T21:03:33.676Z,0.50
2023-04-26T21:06:01.812Z,0.50
2023-04-26T21:08:29.724Z,0.50
2023-04-26T21:10:58.811Z,0.50
2023-04-26T21:13:27.098Z,0.37
2023-04-26T21:15:59.696Z,0.43
2023-04-26T21:18:37.498Z,0.40
2023-04-26T21:21:05.676Z,0.50
2023-04-26T21:23:47.639Z,0.40
2023-04-26T21:26:18.414Z,0.43
2023-04-26T21:28:49.298Z,0.40
2023-04-26T21:31:22.206Z,0.40
2023-04-26T21:33:50.875Z,0.40
2023-04-26T21:36:19.074Z,0.43
2023-04-26T21:38:48.568Z,0.40
2023-04-26T21:41:16.534Z,0.47
2023-04-26T21:43:45.809Z,0.50
2023-04-26T21:46:13.890Z,0.50
2023-04-26T21:48:45.677Z,0.50
2023-04-26T21:51:14.851Z,0.40
2023-04-26T21:53:42.910Z,0.40
2023-04-26T21:56:14.660Z,0.40
2023-04-26T21:58:43.228Z,0.40
2023-04-26T22:01:13.037Z,0.50
2023-04-26T22:03:41.472Z,0.40
2023-04-26T22:06:11.547Z,0.43
2023-04-26T22:08:39.692Z,0.40
2023-04-26T22:11:07.863Z,0.40
2023-04-26T22:13:35.916Z,0.50
2023-04-26T22:16:04.383Z,0.50
2023-04-26T22:18:32.666Z,0.40
2023-04-26T22:21:01.651Z,0.40
2023-04-26T22:23:31.712Z,0.40
2023-04-26T22:26:00.742Z,0.40
2023-04-26T22:28:28.713Z,0.30
2023-04-26T22:30:56.796Z,0.40
2023-04-26T22:33:24.766Z,0.40
2023-04-26T22:35:57.504Z,0.40
2023-04-26T22:38:25.547Z,0.40
2023-04-26T22:40:55.341Z,0.50
2023-04-26T22:43:23.700Z,0.40
2023-04-26T22:45:51.780Z,0.40
2023-04-26T22:48:19.746Z,0.40
2023-04-26T22:50:49.619Z,0.47
2023-04-26T22:53:17.792Z,0.50
2023-04-26T22:55:45.943Z,0.40
2023-04-26T22:58:17.267Z,0.40
2023-04-26T23:00:45.273Z,0.40
2023-04-26T23:03:13.557Z,0.50
2023-04-26T23:05:41.614Z,0.33
2023-04-26T23:08:10.994Z,0.40
2023-04-26T23:10:40.064Z,0.50
2023-04-26T23:13:10.408Z,0.40
2023-04-26T23:15:39.774Z,0.40
2023-04-26T23:18:07.819Z,0.40
2023-04-26T23:20:36.933Z,0.40
2023-04-26T23:23:04.991Z,0.50
2023-04-26T23:25:32.938Z,0.50
2023-04-26T23:28:01.092Z,0.53
2023-04-26T23:30:29.017Z,0.40
2023-04-26T23:32:58.248Z,0.40
2023-04-26T23:35:26.189Z,0.47
2023-04-26T23:37:55.216Z,0.40
2023-04-26T23:40:23.321Z,0.50
2023-04-26T23:42:51.266Z,0.50
2023-04-26T23:45:19.493Z,0.50
2023-04-26T23:47:47.429Z,0.50
2023-04-26T23:50:16.860Z,0.40
2023-04-26T23:52:45.006Z,0.40
2023-04-26T23:55:13.259Z,0.40
2023-04-26T23:57:41.344Z,0.50
